Salish — WDF6992 — position and weather

sailwx.info

Track history (hours):
 
Tides and Currents Weather Stations Pressure Air Temp Water Temp Dewpoint Dewpoint Depression Visibility Wind Speed Wind Dir Waves Ship Positions

Salish

Owner: WASHINGTON, STATE OF; Department of Transportation, Olympia, WA. More information available from US FCC via Universal Licensing System and Coast Guard Vessel Documentation Center.

Last reported at 2018-Jul-22 18:00 UTC. Time now 2018-Jul-22 18:20 UTC.
Position N 48°10' W 122°40'.

Length 86 m; draft 3 m.

Type: Passenger vessel. MMSI: 367480010.

Date/timePositionNaut miles runAvg speedWind from/ knotsBaromVisibWave heightAir tempDewpointWater temp
2018-Jul-22 18:00N 48°10' W 122°40'3 5.7
2018-Jul-22 17:30N 48°07' W 122°43'2 3.4
2018-Jul-22 17:00N 48°07' W 122°46'0 0.0
2018-Jul-22 16:30N 48°07' W 122°46'0 0.0
2018-Jul-22 16:00N 48°07' W 122°46'0 0.0
2018-Jul-22 14:59N 48°07' W 122°46'0 0.0
2018-Jul-22 14:29N 48°07' W 122°46'0 0.0
2018-Jul-22 14:00N 48°07' W 122°46'0 0.0
2018-Jul-22 13:29N 48°07' W 122°46'0 0.0
2018-Jul-22 13:00N 48°07' W 122°46'0 0.0
2018-Jul-22 12:30N 48°07' W 122°46'0 0.0
2018-Jul-22 12:01N 48°07' W 122°46'0 0.0
2018-Jul-22 11:30N 48°07' W 122°46'0 0.0
2018-Jul-22 11:01N 48°07' W 122°46'0 0.0
2018-Jul-22 10:31N 48°07' W 122°46'0 0.0
2018-Jul-22 10:00N 48°07' W 122°46'0 0.0
2018-Jul-22 09:30N 48°07' W 122°46'0 0.0
2018-Jul-22 09:00N 48°07' W 122°46'0 0.0
2018-Jul-22 08:30N 48°07' W 122°46'0 0.0
2018-Jul-22 07:59N 48°07' W 122°46'0 0.0
2018-Jul-22 07:30N 48°07' W 122°46'0 0.0
2018-Jul-22 06:56N 48°07' W 122°46'0 0.0
2018-Jul-22 06:30N 48°07' W 122°46'0 0.0
2018-Jul-22 05:59N 48°07' W 122°46'0 0.1
2018-Jul-22 05:30N 48°07' W 122°46'0 0.0
2018-Jul-22 04:54N 48°07' W 122°46'0 0.0
2018-Jul-22 04:25N 48°07' W 122°46'0 0.0
2018-Jul-22 02:46N 48°07' W 122°46'0 0.1
2018-Jul-22 02:30N 48°07' W 122°46'0 0.0
2018-Jul-22 01:30N 48°07' W 122°46'0 0.0
2018-Jul-22 01:00N 48°07' W 122°46'0 0.0
2018-Jul-22 00:30N 48°07' W 122°46'0 0.0
2018-Jul-22 00:00N 48°07' W 122°46'0 0.0
2018-Jul-21 23:30N 48°07' W 122°46'0 0.1
2018-Jul-21 22:59N 48°07' W 122°45'0 0.1
2018-Jul-21 22:30N 48°07' W 122°46'4 7.3
2018-Jul-21 21:59N 48°09' W 122°41'3 1.2
2018-Jul-21 19:16N 48°07' W 122°44'1 0.6
2018-Jul-21 17:42N 48°07' W 122°43'1 0.3
2018-Jul-21 14:38N 48°07' W 122°44'0 0.0
2018-Jul-21 06:02N 48°07' W 122°44'112.0
2018-Jul-21 05:55N 48°07' W 122°42'2 0.5
2018-Jul-21 01:49N 48°07' W 122°46'1 1.6
2018-Jul-21 01:29N 48°07' W 122°45'  
Track history (hours):
 
Tides and Currents Weather Stations Pressure Air Temp Water Temp Dewpoint Dewpoint Depression Visibility Wind Speed Wind Dir Waves Ship Positions

Salish

Owner: WASHINGTON, STATE OF; Department of Transportation, Olympia, WA. More information available from US FCC via Universal Licensing System and Coast Guard Vessel Documentation Center.

Last reported at 2018-Jul-22 18:00 UTC. Time now 2018-Jul-22 18:20 UTC.
Position N 48°10' W 122°40'.

Length 86 m; draft 3 m.

Type: Passenger vessel. MMSI: 367480010.

Date/timePositionNaut miles runAvg speedWind from/ knotsBaromVisibWave heightAir tempDewpointWater temp
2018-Jul-22 18:00N 48°10' W 122°40'3 5.7
2018-Jul-22 17:30N 48°07' W 122°43'2 3.4
2018-Jul-22 17:00N 48°07' W 122°46'0 0.0
2018-Jul-22 16:30N 48°07' W 122°46'0 0.0
2018-Jul-22 16:00N 48°07' W 122°46'0 0.0
2018-Jul-22 14:59N 48°07' W 122°46'0 0.0
2018-Jul-22 14:29N 48°07' W 122°46'0 0.0
2018-Jul-22 14:00N 48°07' W 122°46'0 0.0
2018-Jul-22 13:29N 48°07' W 122°46'0 0.0
2018-Jul-22 13:00N 48°07' W 122°46'0 0.0
2018-Jul-22 12:30N 48°07' W 122°46'0 0.0
2018-Jul-22 12:01N 48°07' W 122°46'0 0.0
2018-Jul-22 11:30N 48°07' W 122°46'0 0.0
2018-Jul-22 11:01N 48°07' W 122°46'0 0.0
2018-Jul-22 10:31N 48°07' W 122°46'0 0.0
2018-Jul-22 10:00N 48°07' W 122°46'0 0.0
2018-Jul-22 09:30N 48°07' W 122°46'0 0.0
2018-Jul-22 09:00N 48°07' W 122°46'0 0.0
2018-Jul-22 08:30N 48°07' W 122°46'0 0.0
2018-Jul-22 07:59N 48°07' W 122°46'0 0.0
2018-Jul-22 07:30N 48°07' W 122°46'0 0.0
2018-Jul-22 06:56N 48°07' W 122°46'0 0.0
2018-Jul-22 06:30N 48°07' W 122°46'0 0.0
2018-Jul-22 05:59N 48°07' W 122°46'0 0.1
2018-Jul-22 05:30N 48°07' W 122°46'0 0.0
2018-Jul-22 04:54N 48°07' W 122°46'0 0.0
2018-Jul-22 04:25N 48°07' W 122°46'0 0.0
2018-Jul-22 02:46N 48°07' W 122°46'0 0.1
2018-Jul-22 02:30N 48°07' W 122°46'0 0.0
2018-Jul-22 01:30N 48°07' W 122°46'0 0.0
2018-Jul-22 01:00N 48°07' W 122°46'0 0.0
2018-Jul-22 00:30N 48°07' W 122°46'0 0.0
2018-Jul-22 00:00N 48°07' W 122°46'0 0.0
2018-Jul-21 23:30N 48°07' W 122°46'0 0.1
2018-Jul-21 22:59N 48°07' W 122°45'0 0.1
2018-Jul-21 22:30N 48°07' W 122°46'4 7.3
2018-Jul-21 21:59N 48°09' W 122°41'3 1.2
2018-Jul-21 19:16N 48°07' W 122°44'1 0.6
2018-Jul-21 17:42N 48°07' W 122°43'1 0.3
2018-Jul-21 14:38N 48°07' W 122°44'0 0.0
2018-Jul-21 06:02N 48°07' W 122°44'112.0
2018-Jul-21 05:55N 48°07' W 122°42'2 0.5
2018-Jul-21 01:49N 48°07' W 122°46'1 1.6
2018-Jul-21 01:29N 48°07' W 122°45'  

Dump ship's entire track history